createdAt,value
2022-10-17T00:01:44.958Z,7.17
2022-10-17T00:04:12.654Z,5.07
2022-10-17T00:06:42.234Z,5.17
2022-10-17T00:09:10.353Z,10.27
2022-10-17T00:11:38.171Z,5.50
2022-10-17T00:14:06.061Z,5.80
2022-10-17T00:16:37.611Z,7.77
2022-10-17T00:19:06.478Z,6.73
2022-10-17T00:21:34.766Z,7.70
2022-10-17T00:24:04.067Z,9.50
2022-10-17T00:26:31.762Z,9.10
2022-10-17T00:28:59.577Z,5.47
2022-10-17T00:31:27.405Z,6.10
2022-10-17T00:33:55.207Z,5.37
2022-10-17T00:36:24.423Z,6.57
2022-10-17T00:38:54.207Z,8.00
2022-10-17T00:41:25.726Z,5.43
2022-10-17T00:43:56.754Z,10.50
2022-10-17T00:46:30.500Z,5.50
2022-10-17T00:49:01.685Z,5.40
2022-10-17T00:51:34.631Z,9.67
2022-10-17T00:54:04.102Z,4.73
2022-10-17T00:56:33.606Z,6.00
2022-10-17T00:59:01.770Z,6.27
2022-10-17T01:01:29.672Z,9.00
2022-10-17T01:03:57.412Z,6.03
2022-10-17T01:06:26.124Z,4.40
2022-10-17T01:08:54.161Z,4.83
2022-10-17T01:11:33.985Z,5.47
2022-10-17T01:14:10.173Z,6.80
2022-10-17T01:16:45.730Z,4.77
2022-10-17T01:19:35.791Z,5.53
2022-10-17T01:22:10.801Z,5.47
2022-10-17T01:24:49.542Z,4.30
2022-10-17T01:27:40.482Z,4.53
2022-10-17T01:30:43.641Z,6.03
2022-10-17T01:33:16.782Z,6.10
2022-10-17T01:35:53.290Z,6.13
2022-10-17T01:38:25.809Z,5.57
2022-10-17T01:41:01.250Z,5.80
2022-10-17T01:43:35.991Z,4.23
2022-10-17T01:46:12.198Z,5.00
2022-10-17T01:48:45.173Z,5.50
2022-10-17T01:51:20.385Z,5.97
2022-10-17T01:53:54.389Z,5.83
2022-10-17T01:56:25.935Z,6.13
2022-10-17T01:58:57.506Z,7.20
2022-10-17T02:01:32.099Z,7.73
2022-10-17T02:04:02.289Z,7.30
2022-10-17T02:06:30.023Z,6.57
2022-10-17T02:08:57.717Z,7.70
2022-10-17T02:11:28.385Z,5.27
2022-10-17T02:14:20.080Z,5.67
2022-10-17T02:16:57.683Z,5.40
2022-10-17T02:19:41.473Z,8.33
2022-10-17T02:22:18.781Z,4.60
2022-10-17T02:24:53.002Z,5.17
2022-10-17T02:27:31.564Z,9.50
2022-10-17T02:30:04.208Z,5.30
2022-10-17T02:32:40.132Z,6.63
2022-10-17T02:35:11.593Z,4.63
2022-10-17T02:37:40.222Z,5.37
2022-10-17T02:40:10.813Z,6.13
2022-10-17T02:42:40.291Z,5.40
2022-10-17T02:45:10.162Z,5.70
2022-10-17T02:47:49.957Z,6.57
2022-10-17T02:50:18.146Z,8.80
2022-10-17T02:52:50.620Z,7.40
2022-10-17T02:55:21.008Z,6.33
2022-10-17T02:57:52.162Z,5.00
2022-10-17T03:00:22.275Z,8.60
2022-10-17T03:02:54.105Z,5.27
2022-10-17T03:05:24.512Z,5.67
2022-10-17T03:07:52.828Z,5.40
2022-10-17T03:10:21.431Z,6.90
2022-10-17T03:12:49.213Z,4.77
2022-10-17T03:15:17.187Z,4.97
2022-10-17T03:20:17.289Z,5.80
2022-10-17T03:22:44.969Z,6.50
2022-10-17T03:25:15.225Z,5.87
2022-10-17T03:27:42.936Z,4.40
2022-10-17T03:30:11.392Z,6.27
2022-10-17T03:32:39.129Z,10.10
2022-10-17T03:35:09.219Z,4.73
2022-10-17T03:37:40.370Z,6.97
2022-10-17T03:40:08.667Z,4.70
2022-10-17T03:42:36.359Z,6.33
2022-10-17T03:45:04.390Z,6.37
2022-10-17T03:47:32.385Z,8.03
2022-10-17T03:50:00.486Z,6.13
2022-10-17T03:52:28.247Z,4.60
2022-10-17T03:54:57.334Z,5.57
2022-10-17T03:57:25.053Z,4.40
2022-10-17T03:59:52.885Z,7.20
2022-10-17T04:02:20.587Z,4.87
2022-10-17T04:04:48.248Z,5.90
2022-10-17T04:07:16.013Z,8.03
2022-10-17T04:09:43.751Z,5.50
2022-10-17T04:12:12.941Z,6.47
2022-10-17T04:14:41.182Z,10.57
2022-10-17T04:17:08.906Z,5.10
2022-10-17T04:19:36.615Z,7.50
2022-10-17T04:22:04.606Z,7.43
2022-10-17T04:24:32.468Z,4.97
2022-10-17T04:27:00.237Z,5.13
2022-10-17T04:29:29.742Z,7.47
2022-10-17T04:31:57.542Z,8.60
2022-10-17T04:34:25.332Z,6.13
2022-10-17T04:36:53.034Z,4.50
2022-10-17T04:39:20.867Z,6.87
2022-10-17T04:41:48.589Z,6.23
2022-10-17T04:44:16.427Z,5.30
2022-10-17T04:46:45.500Z,5.43
2022-10-17T04:49:13.740Z,4.60
2022-10-17T04:51:41.442Z,5.73
2022-10-17T04:54:09.217Z,7.73
2022-10-17T04:56:36.968Z,5.13
2022-10-17T04:59:07.770Z,6.80
2022-10-17T05:01:35.488Z,5.00
2022-10-17T05:04:04.634Z,5.27
2022-10-17T05:06:33.585Z,5.43
2022-10-17T05:09:01.285Z,4.70
2022-10-17T05:11:30.806Z,5.00
2022-10-17T05:14:00.424Z,5.13
2022-10-17T05:16:29.309Z,5.03
2022-10-17T05:18:59.192Z,6.47
2022-10-17T05:21:30.880Z,6.23
2022-10-17T05:23:59.068Z,6.83
2022-10-17T05:26:27.351Z,5.17
2022-10-17T05:28:55.214Z,5.00
2022-10-17T05:31:23.036Z,5.23
2022-10-17T05:33:50.847Z,5.30
2022-10-17T05:36:18.695Z,5.07
2022-10-17T05:38:51.838Z,4.37
2022-10-17T05:41:20.643Z,4.43
2022-10-17T05:43:50.176Z,4.40
2022-10-17T05:46:18.202Z,4.00
2022-10-17T05:48:45.952Z,3.70
2022-10-17T05:51:13.747Z,4.40
2022-10-17T05:53:42.568Z,4.30
2022-10-17T05:56:12.979Z,3.33
2022-10-17T05:58:50.154Z,3.60
2022-10-17T06:01:19.127Z,7.33
2022-10-17T06:03:46.891Z,3.30
2022-10-17T06:06:15.936Z,4.10
2022-10-17T06:08:44.051Z,4.60
2022-10-17T06:11:14.041Z,4.93
2022-10-17T06:13:43.736Z,3.20
2022-10-17T06:16:11.435Z,3.50
2022-10-17T06:18:39.162Z,3.33
2022-10-17T06:21:08.629Z,4.23
2022-10-17T06:23:36.747Z,3.57
2022-10-17T06:26:06.623Z,3.37
2022-10-17T06:28:36.215Z,3.17
2022-10-17T06:31:06.377Z,2.90
2022-10-17T06:33:34.208Z,2.70
2022-10-17T06:36:01.996Z,3.43
2022-10-17T06:38:29.770Z,2.67
2022-10-17T06:41:04.916Z,4.17
2022-10-17T06:43:32.691Z,3.77
2022-10-17T06:46:01.823Z,2.77
2022-10-17T06:48:29.605Z,3.57
2022-10-17T06:51:00.211Z,4.20
2022-10-17T06:53:28.975Z,3.57
2022-10-17T06:56:01.305Z,9.23
2022-10-17T06:58:29.154Z,5.20
2022-10-17T07:01:01.577Z,2.87
2022-10-17T07:03:30.175Z,3.37
2022-10-17T07:05:58.660Z,2.60
2022-10-17T07:08:27.109Z,3.03
2022-10-17T07:10:56.239Z,2.50
2022-10-17T07:13:24.872Z,2.63
2022-10-17T07:15:52.609Z,6.97
2022-10-17T07:18:21.789Z,2.67
2022-10-17T07:20:54.863Z,3.10
2022-10-17T07:23:22.892Z,3.27
2022-10-17T07:25:50.951Z,2.70
2022-10-17T07:28:18.793Z,2.60
2022-10-17T07:30:50.606Z,2.50
2022-10-17T07:33:22.914Z,2.20
2022-10-17T07:35:53.258Z,2.80
2022-10-17T07:38:21.017Z,7.43
2022-10-17T07:40:55.308Z,1.93
2022-10-17T07:43:23.268Z,4.90
2022-10-17T07:45:51.024Z,2.37
2022-10-17T07:48:19.178Z,2.53
2022-10-17T07:50:48.681Z,1.93
2022-10-17T07:53:16.540Z,1.80
2022-10-17T07:55:44.946Z,2.03
2022-10-17T07:58:13.368Z,2.50
2022-10-17T08:00:41.447Z,2.00
2022-10-17T08:03:10.808Z,2.10
2022-10-17T08:05:38.542Z,1.50
2022-10-17T08:08:07.670Z,1.80
2022-10-17T08:10:35.384Z,4.20
2022-10-17T08:13:03.483Z,1.63
2022-10-17T08:15:32.152Z,2.60
2022-10-17T08:18:00.544Z,5.33
2022-10-17T08:20:28.344Z,2.47
2022-10-17T08:22:56.673Z,2.80
2022-10-17T08:25:25.833Z,3.77
2022-10-17T08:27:53.624Z,1.93
2022-10-17T08:30:21.379Z,2.03
2022-10-17T08:32:49.127Z,2.43
2022-10-17T08:35:16.919Z,4.00
2022-10-17T08:37:44.708Z,2.87
2022-10-17T08:40:18.373Z,3.07
2022-10-17T08:43:03.250Z,4.03
2022-10-17T08:45:37.010Z,5.90
2022-10-17T08:48:10.090Z,3.60
2022-10-17T08:50:41.544Z,2.93
2022-10-17T08:53:16.353Z,2.53
2022-10-17T08:55:48.131Z,2.43
2022-10-17T08:58:21.093Z,2.93
2022-10-17T09:00:58.387Z,2.70
2022-10-17T09:03:43.218Z,2.43
2022-10-17T09:06:29.678Z,3.27
2022-10-17T09:09:12.286Z,2.60
2022-10-17T09:11:53.867Z,2.67
2022-10-17T09:14:52.204Z,3.60
2022-10-17T09:17:32.928Z,2.67
2022-10-17T09:20:05.953Z,3.60
2022-10-17T09:22:40.407Z,3.97
2022-10-17T09:25:14.185Z,2.57
2022-10-17T09:27:45.529Z,2.50
2022-10-17T09:30:51.555Z,2.37
2022-10-17T09:33:34.642Z,2.63
2022-10-17T09:36:15.860Z,2.87
2022-10-17T09:38:45.543Z,2.83
2022-10-17T09:41:44.214Z,3.20
2022-10-17T09:44:15.742Z,3.83
2022-10-17T09:46:56.845Z,3.73
2022-10-17T09:49:33.087Z,3.60
2022-10-17T09:52:02.271Z,2.90
2022-10-17T09:54:40.787Z,2.90
2022-10-17T09:57:10.303Z,3.80
2022-10-17T09:59:40.216Z,2.50
2022-10-17T10:02:18.127Z,3.20
2022-10-17T10:05:05.047Z,2.47
2022-10-17T10:07:36.460Z,2.50
2022-10-17T10:10:07.345Z,2.67
2022-10-17T10:12:36.779Z,4.67
2022-10-17T10:15:33.819Z,3.83
2022-10-17T10:18:03.434Z,2.60
2022-10-17T10:20:34.148Z,2.73
2022-10-17T10:23:13.287Z,3.47
2022-10-17T10:25:53.133Z,3.23
2022-10-17T10:28:22.476Z,4.17
2022-10-17T10:30:52.339Z,2.80
2022-10-17T10:33:23.337Z,4.00
2022-10-17T10:35:57.854Z,3.43
2022-10-17T10:38:26.165Z,2.90
2022-10-17T10:40:56.344Z,3.30
2022-10-17T10:43:32.519Z,4.17
2022-10-17T10:46:00.558Z,4.20
2022-10-17T10:48:33.562Z,3.47
2022-10-17T10:51:05.854Z,5.00
2022-10-17T10:53:45.771Z,4.27
2022-10-17T10:56:19.401Z,3.33
2022-10-17T10:58:55.579Z,3.10
2022-10-17T11:01:30.983Z,3.30
2022-10-17T11:04:14.416Z,3.37
2022-10-17T11:06:45.436Z,3.93
2022-10-17T11:09:27.881Z,5.87
2022-10-17T11:12:02.924Z,3.20
2022-10-17T11:14:41.651Z,4.97
2022-10-17T11:17:23.370Z,5.07
2022-10-17T11:20:04.667Z,3.87
2022-10-17T11:22:35.417Z,3.90
2022-10-17T11:25:07.223Z,4.93
2022-10-17T11:27:35.493Z,4.17
2022-10-17T11:30:03.816Z,3.57
2022-10-17T11:32:38.269Z,3.13
2022-10-17T11:35:16.283Z,3.20
2022-10-17T11:37:50.748Z,3.40
2022-10-17T11:40:24.622Z,3.70
2022-10-17T11:42:58.237Z,5.07
2022-10-17T11:45:29.566Z,3.40
2022-10-17T11:48:03.467Z,6.57
2022-10-17T11:53:25.402Z,3.30
2022-10-17T11:55:56.035Z,3.30
2022-10-17T11:58:31.378Z,7.57
2022-10-17T12:01:10.273Z,3.10
2022-10-17T12:03:49.619Z,3.40
2022-10-17T12:06:29.360Z,7.00
2022-10-17T12:09:04.274Z,2.80
2022-10-17T12:11:46.452Z,3.30
2022-10-17T12:14:37.708Z,3.33
2022-10-17T12:17:07.071Z,3.60
2022-10-17T12:19:36.844Z,4.63
2022-10-17T12:22:22.806Z,5.13
2022-10-17T12:24:59.438Z,3.50
2022-10-17T12:27:46.236Z,5.30
2022-10-17T12:30:32.024Z,3.53
2022-10-17T12:33:22.301Z,4.57
2022-10-17T12:35:51.319Z,5.87
2022-10-17T12:38:26.358Z,5.33
2022-10-17T12:40:56.984Z,3.50
2022-10-17T12:46:57.054Z,3.67
2022-10-17T12:49:49.682Z,3.73
2022-10-17T12:52:44.767Z,5.67
2022-10-17T12:55:16.721Z,3.63
2022-10-17T12:57:52.638Z,4.10
2022-10-17T13:00:25.266Z,8.23
2022-10-17T13:02:55.891Z,7.10
2022-10-17T13:05:29.510Z,3.90
2022-10-17T13:08:00.489Z,4.73
2022-10-17T13:10:35.306Z,5.30
2022-10-17T13:13:10.071Z,4.10
2022-10-17T13:15:38.472Z,6.47
2022-10-17T13:18:06.405Z,4.30
2022-10-17T13:20:34.320Z,3.73
2022-10-17T13:23:02.327Z,3.87
2022-10-17T13:25:31.498Z,3.90
2022-10-17T13:28:12.814Z,3.83
2022-10-17T13:30:40.927Z,3.63
2022-10-17T13:33:29.561Z,4.50
2022-10-17T13:36:01.176Z,7.40
2022-10-17T13:38:34.885Z,3.93
2022-10-17T13:41:34.129Z,4.10
2022-10-17T13:44:03.885Z,7.30
2022-10-17T13:46:38.387Z,3.60
2022-10-17T13:49:13.817Z,3.97
2022-10-17T13:51:45.654Z,3.90
2022-10-17T13:54:36.969Z,3.67
2022-10-17T13:57:08.104Z,5.00
2022-10-17T13:59:40.598Z,3.60
2022-10-17T14:02:15.526Z,4.67
2022-10-17T14:05:16.164Z,4.63
2022-10-17T14:07:58.351Z,3.67
2022-10-17T14:10:26.679Z,8.37
2022-10-17T14:12:56.853Z,5.07
2022-10-17T14:15:28.068Z,3.93
2022-10-17T14:17:59.118Z,3.80
2022-10-17T14:23:35.556Z,3.60
2022-10-17T14:26:09.816Z,5.60
2022-10-17T14:28:39.189Z,9.07
2022-10-17T14:31:14.509Z,5.90
2022-10-17T14:33:49.801Z,3.57
2022-10-17T14:36:19.448Z,4.20
2022-10-17T14:38:48.991Z,3.97
2022-10-17T14:41:41.974Z,8.83
2022-10-17T14:44:23.727Z,3.80
2022-10-17T14:46:55.730Z,3.83
2022-10-17T14:49:29.571Z,4.13
2022-10-17T14:52:17.682Z,3.93
2022-10-17T14:54:47.863Z,5.43
2022-10-17T14:57:19.797Z,4.30
2022-10-17T14:59:56.267Z,4.87
2022-10-17T15:02:24.808Z,4.47
2022-10-17T15:04:52.605Z,4.40
2022-10-17T15:07:21.476Z,3.80
2022-10-17T15:09:51.387Z,4.43
2022-10-17T15:12:20.828Z,4.83
2022-10-17T15:14:50.654Z,4.83
2022-10-17T15:17:21.525Z,5.03
2022-10-17T15:19:50.531Z,6.93
2022-10-17T15:22:18.589Z,5.10
2022-10-17T15:24:47.000Z,11.13
2022-10-17T15:27:16.972Z,4.50
2022-10-17T15:29:45.108Z,6.40
2022-10-17T15:32:14.690Z,5.13
2022-10-17T15:34:42.975Z,7.93
2022-10-17T15:37:17.913Z,4.83
2022-10-17T15:39:48.030Z,4.77
2022-10-17T15:42:15.703Z,6.77
2022-10-17T15:44:44.566Z,5.43
2022-10-17T15:47:23.273Z,7.07
2022-10-17T15:49:51.039Z,6.60
2022-10-17T15:52:19.067Z,6.40
2022-10-17T15:54:47.155Z,6.03
2022-10-17T15:57:19.172Z,5.40
2022-10-17T15:59:48.000Z,5.80
2022-10-17T16:02:18.809Z,6.97
2022-10-17T16:04:47.453Z,7.63
2022-10-17T16:07:15.234Z,6.30
2022-10-17T16:09:43.068Z,7.03
2022-10-17T16:14:51.125Z,6.23
2022-10-17T16:17:20.220Z,6.30
2022-10-17T16:19:47.912Z,7.20
2022-10-17T16:22:23.978Z,12.67
2022-10-17T16:24:58.281Z,7.47
2022-10-17T16:27:26.183Z,11.67
2022-10-17T16:29:54.035Z,11.73
2022-10-17T16:32:23.134Z,11.80
2022-10-17T16:34:50.844Z,8.17
2022-10-17T16:37:18.554Z,8.33
2022-10-17T16:39:49.225Z,13.27
2022-10-17T16:42:17.041Z,9.60
2022-10-17T16:44:44.861Z,8.17
2022-10-17T16:47:12.684Z,9.20
2022-10-17T16:49:44.485Z,8.60
2022-10-17T16:52:16.528Z,7.97
2022-10-17T16:54:44.226Z,7.93
2022-10-17T16:57:11.992Z,9.67
2022-10-17T16:59:39.697Z,7.57
2022-10-17T17:02:07.668Z,7.90
2022-10-17T17:04:35.389Z,7.60
2022-10-17T17:07:04.506Z,7.63
2022-10-17T17:09:32.210Z,8.47
2022-10-17T17:11:59.971Z,9.40
2022-10-17T17:14:27.710Z,8.20
2022-10-17T17:16:55.411Z,7.40
2022-10-17T17:19:23.071Z,7.87
2022-10-17T17:21:51.214Z,7.53
2022-10-17T17:24:25.542Z,7.60
2022-10-17T17:26:54.840Z,8.07
2022-10-17T17:29:28.118Z,7.90
2022-10-17T17:31:55.854Z,7.50
2022-10-17T17:34:23.557Z,6.87
2022-10-17T17:36:51.237Z,6.67
2022-10-17T17:39:20.304Z,6.27
2022-10-17T17:41:48.075Z,5.90
2022-10-17T17:44:16.979Z,7.87
2022-10-17T17:46:45.553Z,6.43
2022-10-17T17:49:13.522Z,6.20
2022-10-17T17:51:46.064Z,5.47
2022-10-17T17:54:13.839Z,5.80
2022-10-17T17:56:45.967Z,5.47
2022-10-17T17:59:14.450Z,5.20
2022-10-17T18:01:42.777Z,6.40
2022-10-17T18:04:10.889Z,5.17
2022-10-17T18:06:39.326Z,5.03
2022-10-17T18:09:10.080Z,6.27
2022-10-17T18:11:39.038Z,4.60
2022-10-17T18:14:12.454Z,6.33
2022-10-17T18:16:40.181Z,4.70
2022-10-17T18:19:09.915Z,4.77
2022-10-17T18:21:38.499Z,6.50
2022-10-17T18:24:07.217Z,5.37
2022-10-17T18:26:37.770Z,5.13
2022-10-17T18:29:05.675Z,5.27
2022-10-17T18:31:36.470Z,5.17
2022-10-17T18:34:05.804Z,5.47
2022-10-17T18:36:34.937Z,5.53
2022-10-17T18:39:06.077Z,5.30
2022-10-17T18:41:34.473Z,5.27
2022-10-17T18:44:02.917Z,6.23
2022-10-17T18:46:40.426Z,5.13
2022-10-17T18:49:09.188Z,5.17
2022-10-17T18:51:37.637Z,7.60
2022-10-17T18:54:05.786Z,4.97
2022-10-17T18:56:33.494Z,5.17
2022-10-17T18:59:01.224Z,5.03
2022-10-17T19:01:29.382Z,5.00
2022-10-17T19:04:00.148Z,4.70
2022-10-17T19:06:31.763Z,4.83
2022-10-17T19:09:01.725Z,4.67
2022-10-17T19:11:31.269Z,5.33
2022-10-17T19:14:01.177Z,4.77
2022-10-17T19:16:30.823Z,4.83
2022-10-17T19:19:06.374Z,6.10
2022-10-17T19:21:34.602Z,5.93
2022-10-17T19:24:05.210Z,6.13
2022-10-17T19:26:35.613Z,6.00
2022-10-17T19:29:04.342Z,6.00
2022-10-17T19:31:33.728Z,6.53
2022-10-17T19:34:03.139Z,7.03
2022-10-17T19:36:33.538Z,7.07
2022-10-17T19:39:02.802Z,7.70
2022-10-17T19:41:30.940Z,8.30
2022-10-17T19:44:00.734Z,8.40
2022-10-17T19:46:30.681Z,9.37
2022-10-17T19:48:58.979Z,9.50
2022-10-17T19:51:29.188Z,9.67
2022-10-17T19:54:00.190Z,10.47
2022-10-17T19:56:30.033Z,9.40
2022-10-17T19:58:58.270Z,9.93
2022-10-17T20:01:27.558Z,10.87
2022-10-17T20:03:56.347Z,10.67
2022-10-17T20:06:25.033Z,10.47
2022-10-17T20:08:54.285Z,10.93
2022-10-17T20:11:24.048Z,10.90
2022-10-17T20:13:52.174Z,11.20
2022-10-17T20:16:22.474Z,11.17
2022-10-17T20:18:51.280Z,11.73
2022-10-17T20:21:21.049Z,11.60
2022-10-17T20:23:49.017Z,11.63
2022-10-17T20:29:12.183Z,11.20
2022-10-17T20:31:41.329Z,11.13
2022-10-17T20:34:10.845Z,11.00
2022-10-17T20:36:38.690Z,11.43
2022-10-17T20:39:07.225Z,11.00
2022-10-17T20:41:36.319Z,11.90
2022-10-17T20:44:06.875Z,11.17
2022-10-17T20:46:38.330Z,12.20
2022-10-17T20:49:12.191Z,10.40
2022-10-17T20:51:39.935Z,12.27
2022-10-17T20:54:07.784Z,11.70
2022-10-17T20:56:38.646Z,12.30
2022-10-17T20:59:08.169Z,11.83
2022-10-17T21:01:36.801Z,12.23
2022-10-17T21:04:27.050Z,11.27
2022-10-17T21:06:53.929Z,10.83
2022-10-17T21:09:22.031Z,9.90
2022-10-17T21:11:55.075Z,10.43
2022-10-17T21:14:24.216Z,10.33
2022-10-17T21:16:53.100Z,10.73
2022-10-17T21:19:21.718Z,9.93
2022-10-17T21:21:49.547Z,9.27
2022-10-17T21:24:20.401Z,11.50
2022-10-17T21:26:50.089Z,7.60
2022-10-17T21:29:19.133Z,5.93
2022-10-17T21:31:46.800Z,4.60
2022-10-17T21:34:17.484Z,3.93
2022-10-17T21:36:45.490Z,3.20
2022-10-17T21:39:14.120Z,3.07
2022-10-17T21:41:42.842Z,3.97
2022-10-17T21:44:14.856Z,2.50
2022-10-17T21:46:44.551Z,3.47
2022-10-17T21:49:13.618Z,3.23
2022-10-17T21:51:42.067Z,3.03
2022-10-17T21:54:10.005Z,2.60
2022-10-17T21:56:38.406Z,2.20
2022-10-17T21:59:06.922Z,2.13
2022-10-17T22:01:37.516Z,2.37
2022-10-17T22:04:08.246Z,1.90
2022-10-17T22:06:40.185Z,2.23
2022-10-17T22:09:13.034Z,1.90
2022-10-17T22:11:41.253Z,2.37
2022-10-17T22:14:17.100Z,2.47
2022-10-17T22:16:46.433Z,1.93
2022-10-17T22:19:18.212Z,2.80
2022-10-17T22:21:46.426Z,2.37
2022-10-17T22:24:17.076Z,2.33
2022-10-17T22:26:45.543Z,1.93
2022-10-17T22:29:13.345Z,1.83
2022-10-17T22:31:41.536Z,2.40
2022-10-17T22:34:11.329Z,2.33
2022-10-17T22:36:40.425Z,3.23
2022-10-17T22:39:08.473Z,1.90
2022-10-17T22:41:36.467Z,1.67
2022-10-17T22:44:04.817Z,1.77
2022-10-17T22:46:32.528Z,2.07
2022-10-17T22:49:00.279Z,1.90
2022-10-17T22:51:28.134Z,2.00
2022-10-17T22:53:57.247Z,2.83
2022-10-17T22:56:24.957Z,2.50
2022-10-17T22:58:53.204Z,2.23
2022-10-17T23:01:23.384Z,2.50
2022-10-17T23:03:51.766Z,3.47
2022-10-17T23:06:20.166Z,2.60
2022-10-17T23:08:48.069Z,3.63
2022-10-17T23:11:17.453Z,3.83
2022-10-17T23:13:45.195Z,4.63
2022-10-17T23:16:13.056Z,4.73
2022-10-17T23:18:41.139Z,3.83
2022-10-17T23:21:09.192Z,3.97
2022-10-17T23:23:37.693Z,4.00
2022-10-17T23:26:06.496Z,6.67
2022-10-17T23:28:35.995Z,4.70
2022-10-17T23:31:11.556Z,6.17
2022-10-17T23:33:41.240Z,5.80
2022-10-17T23:36:10.525Z,5.77
2022-10-17T23:38:38.315Z,5.03
2022-10-17T23:41:06.484Z,7.47
2022-10-17T23:43:35.982Z,5.67
2022-10-17T23:46:05.236Z,6.53
2022-10-17T23:48:33.195Z,5.70
2022-10-17T23:51:00.936Z,11.77
2022-10-17T23:53:28.690Z,7.17
2022-10-17T23:55:56.412Z,6.87
2022-10-17T23:58:24.088Z,11.07
